Time;durP1;ratioP1;P1;durP2;ratioP2;P2;SDS_P1;SDS_P2;PMS_P1;PMS_P2;Temp;Humidity;BMP_temperature;BMP_pressure;BME280_temperature;BME280_humidity;BME280_pressure;Samples;Min_cycle;Max_cycle;Signal;HPM_P1;HPM_P2
2021/11/23 00:00:23;;;;;;;25.80;10.25;;;5.00;99.90;;;;;;4969771;28;20045;-85
2021/11/23 00:03:13;;;;;;;19.17;9.57;;;5.00;99.90;;;;;;4982540;28;20070;-86
2021/11/23 00:06:04;;;;;;;19.40;10.07;;;5.10;99.90;;;;;;4971025;28;20077;-85
2021/11/23 00:08:33;;;;;;;18.33;9.95;;;5.10;99.90;;;;;;4946539;28;20049;-85
2021/11/23 00:11:02;;;;;;;19.15;9.45;;;5.10;99.90;;;;;;4967985;28;20108;-85
2021/11/23 00:13:28;;;;;;;27.23;9.43;;;5.20;99.90;;;;;;4970635;28;20096;-85
2021/11/23 00:15:54;;;;;;;21.02;9.45;;;5.20;99.90;;;;;;4970319;28;20045;-86
2021/11/23 00:18:38;;;;;;;24.55;9.48;;;5.30;99.90;;;;;;4966547;28;20042;-84
2021/11/23 00:21:09;;;;;;;26.52;9.43;;;5.30;99.90;;;;;;4966712;28;20654;-85
2021/11/23 00:23:42;;;;;;;27.67;9.93;;;5.20;99.90;;;;;;4963430;28;20481;-85
2021/11/23 00:26:50;;;;;;;;;;;5.30;99.90;;;;;;4968376;28;20050;-85
2021/11/23 00:28:58;;;;;;;22.77;8.68;;;5.40;99.90;;;;;;4980020;28;19925;-84
2021/11/23 00:31:27;;;;;;;21.13;9.27;;;5.40;99.90;;;;;;4965858;28;20048;-85
2021/11/23 00:33:55;;;;;;;27.83;9.85;;;5.50;99.90;;;;;;4963657;28;20241;-85
2021/11/23 00:36:21;;;;;;;21.38;9.73;;;5.50;99.90;;;;;;4949728;28;20045;-86
2021/11/23 00:38:57;;;;;;;24.17;10.38;;;5.50;99.90;;;;;;4968411;28;20272;-86
2021/11/23 00:41:29;;;;;;;28.15;9.60;;;5.60;99.90;;;;;;4948796;28;20062;-85
2021/11/23 00:43:57;;;;;;;36.40;10.23;;;5.60;99.90;;;;;;4980302;28;20127;-85
2021/11/23 00:46:29;;;;;;;34.50;11.10;;;5.60;99.90;;;;;;4966159;28;20405;-84
2021/11/23 00:49:01;;;;;;;28.10;10.65;;;5.60;99.90;;;;;;4966748;28;20509;-84
2021/11/23 00:51:58;;;;;;;22.70;11.48;;;5.70;99.90;;;;;;4966700;28;20053;-85
2021/11/23 00:54:31;;;;;;;23.25;10.05;;;5.70;99.90;;;;;;4972490;28;20100;-85
2021/11/23 00:56:57;;;;;;;27.77;9.82;;;5.70;99.90;;;;;;4977152;28;20045;-84
2021/11/23 00:59:29;;;;;;;30.02;11.48;;;5.80;99.90;;;;;;4943301;28;20030;-86
2021/11/23 01:01:58;;;;;;;25.58;10.85;;;5.80;99.90;;;;;;4965170;28;20034;-85
2021/11/23 01:04:25;;;;;;;33.70;11.82;;;5.80;99.90;;;;;;4968587;28;20067;-85
2021/11/23 01:06:51;;;;;;;25.77;10.80;;;5.80;99.90;;;;;;4977329;28;20545;-83
2021/11/23 01:09:24;;;;;;;26.00;11.05;;;5.80;99.90;;;;;;4947449;28;20251;-85
2021/11/23 01:11:53;;;;;;;23.60;11.25;;;5.90;99.90;;;;;;4928347;28;20140;-85
2021/11/23 01:14:26;;;;;;;29.23;11.38;;;5.90;99.90;;;;;;4965500;28;20085;-84
2021/11/23 01:17:01;;;;;;;34.65;11.35;;;5.90;99.90;;;;;;4966151;28;20487;-85
2021/11/23 01:19:29;;;;;;;33.92;11.80;;;6.00;99.90;;;;;;4983870;28;20046;-84
2021/11/23 01:22:09;;;;;;;27.15;11.60;;;6.00;99.90;;;;;;4965706;28;20497;-84
2021/11/23 01:24:54;;;;;;;36.92;11.80;;;6.00;99.90;;;;;;4975898;28;20481;-83
2021/11/23 01:27:22;;;;;;;31.48;11.85;;;6.10;99.90;;;;;;4965224;28;20049;-83
2021/11/23 01:29:48;;;;;;;32.42;11.57;;;6.10;99.90;;;;;;4981803;28;20657;-83
2021/11/23 01:32:14;;;;;;;21.58;10.63;;;6.20;99.90;;;;;;4966712;28;20065;-83
2021/11/23 01:34:40;;;;;;;29.60;11.60;;;6.20;99.90;;;;;;4966680;28;20400;-84
2021/11/23 01:37:06;;;;;;;30.60;11.25;;;6.20;99.90;;;;;;4969368;28;20381;-86
2021/11/23 01:39:32;;;;;;;21.02;10.25;;;6.30;99.90;;;;;;4954794;28;20045;-85
2021/11/23 01:41:58;;;;;;;23.60;11.30;;;6.30;99.90;;;;;;4963659;28;20100;-84
2021/11/23 01:44:26;;;;;;;32.65;11.32;;;6.30;99.90;;;;;;4980430;28;20113;-85
2021/11/23 01:46:52;;;;;;;28.80;11.82;;;6.30;99.90;;;;;;4983493;28;20444;-86
2021/11/23 01:49:19;;;;;;;34.17;10.80;;;6.40;99.90;;;;;;4972978;28;20093;-84
2021/11/23 01:51:45;;;;;;;20.10;9.10;;;6.40;99.90;;;;;;4968791;28;20125;-84
2021/11/23 01:54:12;;;;;;;25.17;9.90;;;6.50;99.90;;;;;;4966296;28;20073;-85
2021/11/23 01:56:38;;;;;;;19.90;9.88;;;6.50;99.90;;;;;;4960641;28;20037;-85
2021/11/23 01:59:07;;;;;;;27.35;10.02;;;6.50;99.90;;;;;;4964515;28;20101;-85
2021/11/23 02:01:33;;;;;;;31.45;10.63;;;6.50;99.90;;;;;;4969291;28;20416;-86
2021/11/23 02:04:09;;;;;;;25.20;10.20;;;6.50;99.90;;;;;;4953885;28;20144;-85
2021/11/23 02:06:35;;;;;;;21.30;9.45;;;6.60;99.90;;;;;;4968145;28;20116;-84
2021/11/23 02:09:02;;;;;;;26.83;10.07;;;6.60;99.90;;;;;;4968983;28;20124;-84
2021/11/23 02:11:28;;;;;;;20.88;9.60;;;6.60;99.90;;;;;;4969154;28;20129;-85
2021/11/23 02:13:54;;;;;;;21.98;9.50;;;6.60;99.90;;;;;;4932812;28;20128;-83
2021/11/23 02:16:21;;;;;;;18.83;9.45;;;6.70;99.90;;;;;;4967034;28;20041;-85
2021/11/23 02:18:47;;;;;;;22.02;9.30;;;6.70;99.90;;;;;;4983644;28;20069;-84
2021/11/23 02:21:13;;;;;;;20.00;9.60;;;6.70;99.90;;;;;;4934665;28;20048;-85
2021/11/23 02:23:50;;;;;;;19.25;9.32;;;6.80;99.90;;;;;;4962754;28;20045;-86
2021/11/23 02:26:16;;;;;;;23.95;9.10;;;6.80;99.90;;;;;;4967173;28;20046;-85
2021/11/23 02:28:43;;;;;;;25.48;8.80;;;6.80;99.90;;;;;;4942144;28;20037;-84
2021/11/23 02:31:10;;;;;;;25.95;9.05;;;6.80;99.90;;;;;;4968529;28;20056;-84
2021/11/23 02:33:39;;;;;;;26.50;9.88;;;6.90;99.90;;;;;;4967064;28;20145;-85
2021/11/23 02:36:12;;;;;;;29.95;10.48;;;6.90;99.90;;;;;;4973432;28;20064;-85
2021/11/23 02:42:09;;;;;;;29.50;9.93;;;6.90;99.90;;;;;;4934337;28;20383;-85
2021/11/23 02:44:42;;;;;;;27.88;10.00;;;7.00;99.90;;;;;;4945729;28;20172;-84
2021/11/23 02:47:36;;;;;;;24.73;9.43;;;7.00;99.90;;;;;;4984681;28;20061;-85
2021/11/23 02:50:15;;;;;;;26.73;8.93;;;7.00;99.90;;;;;;4987105;28;20050;-86
2021/11/23 02:52:43;;;;;;;30.63;10.68;;;7.10;99.90;;;;;;4968382;28;20038;-85
2021/11/23 02:55:09;;;;;;;26.40;9.88;;;7.10;99.90;;;;;;4951618;28;20298;-85
2021/11/23 02:57:35;;;;;;;29.90;9.85;;;7.10;99.90;;;;;;4948010;28;20102;-85
2021/11/23 03:00:09;;;;;;;28.25;10.93;;;7.10;99.90;;;;;;4965772;28;20045;-83
2021/11/23 03:02:36;;;;;;;31.35;10.38;;;7.10;99.90;;;;;;4969558;28;20531;-86
2021/11/23 03:05:46;;;;;;;29.05;9.75;;;7.10;99.90;;;;;;4971474;28;20515;-85
2021/11/23 03:09:25;;;;;;;31.08;9.77;;;7.10;99.90;;;;;;4985523;28;20033;-85
2021/11/23 03:13:16;;;;;;;28.58;10.25;;;7.10;99.90;;;;;;4920556;29;20059;-86
2021/11/23 03:16:08;;;;;;;22.95;8.73;;;7.20;99.90;;;;;;4942572;28;20060;-86
2021/11/23 03:18:36;;;;;;;28.40;10.52;;;7.20;99.90;;;;;;4937144;28;20030;-86
2021/11/23 03:21:03;;;;;;;27.90;9.63;;;7.20;99.90;;;;;;4969459;28;20243;-85
2021/11/23 03:23:36;;;;;;;28.70;9.05;;;7.20;99.90;;;;;;4953604;28;20034;-85
2021/11/23 03:26:10;;;;;;;28.83;9.73;;;7.20;99.90;;;;;;4967966;28;20057;-86
2021/11/23 03:28:36;;;;;;;30.55;9.63;;;7.30;99.90;;;;;;4966195;28;20408;-85
2021/11/23 03:31:03;;;;;;;22.70;8.23;;;7.20;99.90;;;;;;4948823;28;20038;-86
2021/11/23 03:33:31;;;;;;;26.65;8.00;;;7.30;99.90;;;;;;4967255;28;20041;-86
2021/11/23 03:35:56;;;;;;;27.58;7.57;;;7.30;99.90;;;;;;4968228;28;20131;-86
2021/11/23 03:38:24;;;;;;;22.10;8.10;;;7.30;99.90;;;;;;4950023;28;20496;-85
2021/11/23 03:40:49;;;;;;;19.50;6.93;;;7.30;99.90;;;;;;4949735;28;20057;-86
2021/11/23 03:43:21;;;;;;;20.05;7.07;;;7.40;99.90;;;;;;4951260;28;20513;-85
2021/11/23 03:45:55;;;;;;;19.83;7.03;;;7.40;99.90;;;;;;4948580;28;20041;-84
2021/11/23 03:48:21;;;;;;;25.88;8.30;;;7.40;99.90;;;;;;4966686;28;20042;-85
2021/11/23 03:50:47;;;;;;;23.05;7.85;;;7.40;99.90;;;;;;4966079;28;20045;-85
2021/11/23 03:53:19;;;;;;;25.15;7.60;;;7.50;99.90;;;;;;4954152;28;20264;-85
2021/11/23 03:55:49;;;;;;;26.65;7.55;;;7.50;99.90;;;;;;4951693;28;20050;-84
2021/11/23 03:58:18;;;;;;;28.33;7.40;;;7.50;99.90;;;;;;4952661;28;20034;-84
2021/11/23 04:00:44;;;;;;;32.45;7.90;;;7.60;99.90;;;;;;4963897;28;20037;-84
2021/11/23 04:03:12;;;;;;;30.52;7.05;;;7.50;99.90;;;;;;4951050;28;20076;-86
2021/11/23 04:05:38;;;;;;;23.60;6.70;;;7.60;99.90;;;;;;4949239;28;20052;-85
2021/11/23 04:08:04;;;;;;;25.05;6.38;;;7.60;99.90;;;;;;4948016;28;20120;-85
2021/11/23 04:10:30;;;;;;;29.75;6.65;;;7.60;99.90;;;;;;4966516;28;20102;-85
2021/11/23 04:12:56;;;;;;;28.70;6.80;;;7.60;99.90;;;;;;4949912;28;20038;-86
2021/11/23 04:15:24;;;;;;;32.88;6.63;;;7.60;99.90;;;;;;4968539;28;20125;-86
2021/11/23 04:17:53;;;;;;;23.10;6.55;;;7.50;99.90;;;;;;4978291;28;20046;-86
2021/11/23 04:20:19;;;;;;;18.17;5.93;;;7.60;99.90;;;;;;4967401;28;20042;-84
2021/11/23 04:22:45;;;;;;;25.55;6.30;;;7.50;99.90;;;;;;4951603;28;20136;-86
2021/11/23 04:25:11;;;;;;;40.17;7.18;;;7.50;99.90;;;;;;4964496;28;22452;-85
2021/11/23 04:27:38;;;;;;;27.58;6.70;;;7.50;99.90;;;;;;4966894;28;20041;-84
2021/11/23 04:30:13;;;;;;;34.83;6.93;;;7.50;99.90;;;;;;4982197;28;20088;-85
2021/11/23 04:32:57;;;;;;;24.30;6.55;;;7.50;99.90;;;;;;4982720;28;20540;-86
2021/11/23 04:35:34;;;;;;;30.13;6.07;;;7.50;99.90;;;;;;4979125;28;20156;-86
2021/11/23 04:38:30;;;;;;;38.60;6.18;;;7.50;99.90;;;;;;4966995;28;20041;-85
2021/11/23 04:41:50;;;;;;;31.25;6.25;;;7.50;99.90;;;;;;4997909;28;20117;-85
2021/11/23 04:44:18;;;;;;;26.48;5.38;;;7.50;99.90;;;;;;4951641;28;20061;-84
2021/11/23 04:46:49;;;;;;;25.00;5.25;;;7.50;99.90;;;;;;4933843;28;20065;-84
2021/11/23 04:49:22;;;;;;;20.00;4.50;;;7.50;99.90;;;;;;4982974;28;20034;-84
2021/11/23 04:51:54;;;;;;;21.52;4.82;;;7.50;99.90;;;;;;4966784;28;20095;-85
2021/11/23 04:54:28;;;;;;;21.38;5.43;;;7.50;99.90;;;;;;4967363;28;20736;-86
2021/11/23 05:01:03;;;;;;;15.32;3.70;;;7.60;99.90;;;;;;4956602;28;20076;-86
2021/11/23 05:03:48;;;;;;;20.45;4.47;;;7.50;99.90;;;;;;4968348;28;20038;-85
2021/11/23 05:06:23;;;;;;;21.67;4.15;;;7.60;99.90;;;;;;4963307;28;20070;-83
2021/11/23 05:08:54;;;;;;;19.05;4.70;;;7.60;99.90;;;;;;4965710;28;20079;-85
2021/11/23 05:11:31;;;;;;;18.52;4.40;;;7.70;99.90;;;;;;4962663;28;20034;-86
2021/11/23 05:14:03;;;;;;;22.63;4.32;;;7.60;99.90;;;;;;4958863;28;20046;-86
2021/11/23 05:16:38;;;;;;;19.20;4.28;;;7.70;99.90;;;;;;4966756;28;20485;-87
2021/11/23 05:19:24;;;;;;;21.42;4.55;;;7.70;99.90;;;;;;4947170;28;20122;-85
2021/11/23 05:21:51;;;;;;;21.38;4.18;;;7.70;99.90;;;;;;4947233;28;20217;-85
2021/11/23 05:24:26;;;;;;;20.30;4.30;;;7.70;99.90;;;;;;4959427;28;20562;-86
2021/11/23 05:26:55;;;;;;;19.52;4.45;;;7.70;99.90;;;;;;4948636;28;20041;-87
2021/11/23 05:29:24;;;;;;;19.45;4.75;;;7.70;99.90;;;;;;4966577;28;20229;-86
2021/11/23 05:31:50;;;;;;;24.05;5.13;;;7.70;99.90;;;;;;4943340;28;20436;-86
2021/11/23 05:34:25;;;;;;;20.77;5.35;;;7.80;99.90;;;;;;4967446;28;20049;-86
2021/11/23 05:36:51;;;;;;;15.20;4.03;;;7.70;99.90;;;;;;4961148;28;20056;-86
2021/11/23 05:39:19;;;;;;;18.58;4.43;;;7.80;99.90;;;;;;4963022;28;20810;-85
2021/11/23 05:41:45;;;;;;;13.38;4.38;;;7.70;99.90;;;;;;4960958;28;20077;-85
2021/11/23 05:44:55;;;;;;;18.67;4.38;;;7.70;99.90;;;;;;4982675;28;20136;-86
2021/11/23 05:47:24;;;;;;;22.17;4.90;;;7.80;99.90;;;;;;4961554;28;20133;-86
2021/11/23 05:50:05;;;;;;;16.85;4.10;;;7.80;99.90;;;;;;4965382;28;20802;-84
2021/11/23 05:52:40;;;;;;;16.38;4.25;;;7.80;99.90;;;;;;4967456;28;20034;-86
2021/11/23 05:55:07;;;;;;;16.92;4.15;;;7.70;99.90;;;;;;4961043;28;20128;-86
2021/11/23 05:57:33;;;;;;;10.73;4.00;;;7.70;99.90;;;;;;4993799;28;20616;-86
2021/11/23 05:59:59;;;;;;;16.33;4.25;;;7.70;99.90;;;;;;4947785;28;20050;-86
2021/11/23 06:02:27;;;;;;;23.10;5.15;;;7.70;99.90;;;;;;4963138;28;20500;-86
2021/11/23 06:04:53;;;;;;;18.98;5.50;;;7.70;99.90;;;;;;4948597;28;20042;-86
2021/11/23 06:07:19;;;;;;;26.58;5.65;;;7.70;99.90;;;;;;4954260;28;20037;-86
2021/11/23 06:09:52;;;;;;;27.35;5.80;;;7.70;99.90;;;;;;4967829;28;20675;-86
2021/11/23 06:12:17;;;;;;;30.48;5.90;;;7.70;99.90;;;;;;4971702;28;20531;-87
2021/11/23 06:14:43;;;;;;;25.95;6.07;;;7.70;99.90;;;;;;4991395;28;20069;-87
2021/11/23 06:17:10;;;;;;;19.48;5.20;;;7.70;99.90;;;;;;4992323;28;20049;-86
2021/11/23 06:19:37;;;;;;;22.70;6.50;;;7.60;99.90;;;;;;4985696;28;20045;-85
2021/11/23 06:22:04;;;;;;;18.25;5.57;;;7.60;99.90;;;;;;4982580;28;20046;-86
2021/11/23 06:24:30;;;;;;;18.52;5.93;;;7.60;99.90;;;;;;4968517;28;20508;-86
2021/11/23 06:26:59;;;;;;;23.58;5.65;;;7.60;99.90;;;;;;4977410;28;20115;-86
2021/11/23 06:29:25;;;;;;;21.38;5.28;;;7.60;99.90;;;;;;4992213;28;20038;-85
2021/11/23 06:31:53;;;;;;;20.67;5.72;;;7.60;99.90;;;;;;4974094;28;20049;-86
2021/11/23 06:34:22;;;;;;;31.50;7.15;;;7.60;99.90;;;;;;5002483;28;20134;-87
2021/11/23 06:36:48;;;;;;;22.52;6.05;;;7.50;99.90;;;;;;4974800;28;20107;-86
2021/11/23 06:39:14;;;;;;;20.08;5.47;;;7.50;99.90;;;;;;4948227;28;20524;-86
2021/11/23 06:41:39;;;;;;;19.30;5.70;;;7.50;99.90;;;;;;4975062;28;20038;-86
2021/11/23 06:44:05;;;;;;;25.95;5.88;;;7.40;99.90;;;;;;4991887;28;20069;-86
2021/11/23 06:46:31;;;;;;;27.05;5.95;;;7.40;99.90;;;;;;4973261;28;20112;-86
2021/11/23 06:48:58;;;;;;;14.07;5.18;;;7.40;99.90;;;;;;4980322;28;20065;-86
2021/11/23 06:51:24;;;;;;;22.20;5.15;;;7.30;99.90;;;;;;4976086;28;20107;-85
2021/11/23 06:53:50;;;;;;;23.95;5.43;;;7.30;99.90;;;;;;4979492;28;20500;-85
2021/11/23 06:56:16;;;;;;;24.10;5.97;;;7.30;99.90;;;;;;4958941;28;20042;-85
2021/11/23 06:58:42;;;;;;;29.92;6.35;;;7.30;99.90;;;;;;4975127;28;20145;-87
2021/11/23 07:01:08;;;;;;;28.25;6.05;;;7.30;99.90;;;;;;4979247;28;20441;-87
2021/11/23 07:03:34;;;;;;;36.38;7.03;;;7.30;99.90;;;;;;4961608;28;20073;-85
2021/11/23 07:06:03;;;;;;;28.67;6.15;;;7.30;99.90;;;;;;4955482;28;20073;-86
2021/11/23 07:08:31;;;;;;;32.83;7.13;;;7.30;99.90;;;;;;4993226;28;20034;-86
2021/11/23 07:10:57;;;;;;;36.42;6.85;;;7.30;99.90;;;;;;4963217;28;20076;-86
2021/11/23 07:13:23;;;;;;;38.95;7.55;;;7.40;99.90;;;;;;4977354;28;20044;-86
2021/11/23 07:15:48;;;;;;;34.83;8.57;;;7.40;99.90;;;;;;4974224;28;20280;-86
2021/11/23 07:18:15;;;;;;;33.28;7.78;;;7.40;99.90;;;;;;4972936;28;20041;-86
2021/11/23 07:20:41;;;;;;;35.25;7.40;;;7.40;99.90;;;;;;4953799;28;20489;-86
2021/11/23 07:23:10;;;;;;;47.35;7.20;;;7.40;99.90;;;;;;4992181;28;20132;-85
2021/11/23 07:25:37;;;;;;;27.33;6.38;;;7.50;99.90;;;;;;4968391;28;20053;-85
2021/11/23 07:28:04;;;;;;;23.63;5.90;;;7.50;99.90;;;;;;4971825;28;20052;-85
2021/11/23 07:30:32;;;;;;;19.30;5.72;;;7.50;99.90;;;;;;4972656;28;20135;-86
2021/11/23 07:32:58;;;;;;;18.50;5.95;;;7.50;99.90;;;;;;4954869;28;20433;-85
2021/11/23 07:35:24;;;;;;;25.50;6.18;;;7.50;99.90;;;;;;4956337;28;20080;-87
2021/11/23 07:37:58;;;;;;;16.58;5.25;;;7.50;99.90;;;;;;4972093;28;20045;-85
2021/11/23 07:40:33;;;;;;;29.95;5.57;;;7.60;99.90;;;;;;4955583;28;20034;-85
2021/11/23 07:43:02;;;;;;;26.17;5.53;;;7.60;99.90;;;;;;4976507;28;20041;-85
2021/11/23 07:45:28;;;;;;;24.02;5.45;;;7.60;99.90;;;;;;4972163;28;20050;-86
2021/11/23 07:48:03;;;;;;;21.52;4.50;;;7.60;99.90;;;;;;4975378;28;20053;-86
2021/11/23 07:50:39;;;;;;;23.15;5.03;;;7.70;99.90;;;;;;4957975;28;20030;-85
2021/11/23 07:53:07;;;;;;;20.45;4.30;;;7.60;99.90;;;;;;4974454;28;20461;-84
2021/11/23 07:55:36;;;;;;;17.02;4.20;;;7.70;99.90;;;;;;4969665;28;20112;-86
2021/11/23 07:58:03;;;;;;;14.57;3.15;;;7.80;99.90;;;;;;4987704;28;20099;-86
2021/11/23 08:00:32;;;;;;;15.60;3.10;;;7.80;99.90;;;;;;4977219;28;20156;-86
2021/11/23 08:03:09;;;;;;;22.67;3.38;;;7.80;99.90;;;;;;4937608;28;20096;-86
2021/11/23 08:05:37;;;;;;;10.52;3.05;;;7.90;99.90;;;;;;4967436;28;20048;-85
2021/11/23 08:08:13;;;;;;;10.52;2.78;;;7.80;99.90;;;;;;4974166;28;20080;-86
2021/11/23 08:10:39;;;;;;;14.32;3.08;;;7.90;99.90;;;;;;4969953;28;20034;-85
2021/11/23 08:13:05;;;;;;;12.50;2.92;;;7.90;99.90;;;;;;4957280;28;20045;-87
2021/11/23 08:15:35;;;;;;;12.35;2.78;;;7.90;99.90;;;;;;4970900;28;20042;-87
2021/11/23 08:18:01;;;;;;;13.65;2.90;;;7.90;99.90;;;;;;4972893;28;20038;-86
2021/11/23 08:20:27;;;;;;;20.60;3.90;;;7.90;99.90;;;;;;4989604;28;20038;-87
2021/11/23 08:22:53;;;;;;;10.00;2.60;;;7.90;99.90;;;;;;4951391;28;20038;-86
2021/11/23 08:25:20;;;;;;;20.33;3.40;;;7.90;99.90;;;;;;4972278;28;20038;-87
2021/11/23 08:27:45;;;;;;;18.05;2.83;;;8.00;99.90;;;;;;4968150;28;20034;-86
2021/11/23 08:30:12;;;;;;;14.88;2.58;;;8.00;99.90;;;;;;4955924;28;20112;-86
2021/11/23 08:32:38;;;;;;;13.05;2.58;;;8.00;99.90;;;;;;4972215;28;20045;-86
2021/11/23 08:35:09;;;;;;;18.40;2.78;;;8.00;99.90;;;;;;4983469;28;20042;-87
2021/11/23 08:37:35;;;;;;;11.63;3.30;;;8.00;99.90;;;;;;4969519;28;20481;-87
2021/11/23 08:40:04;;;;;;;15.32;2.97;;;8.10;99.90;;;;;;4956514;28;20481;-86
2021/11/23 08:42:30;;;;;;;17.30;2.78;;;8.10;99.90;;;;;;4970621;28;20061;-87
2021/11/23 08:45:01;;;;;;;12.23;3.35;;;8.10;99.90;;;;;;4955405;28;20042;-88
2021/11/23 08:47:28;;;;;;;16.50;3.42;;;8.10;99.90;;;;;;4969722;28;20048;-87
2021/11/23 08:49:56;;;;;;;20.85;3.50;;;8.00;99.90;;;;;;4964040;28;20038;-88
2021/11/23 08:52:26;;;;;;;17.48;3.55;;;8.00;99.90;;;;;;4972436;28;20586;-88
2021/11/23 08:54:55;;;;;;;17.55;4.03;;;8.00;99.90;;;;;;4968208;28;20045;-87
2021/11/23 09:01:20;;;;;;;22.42;3.88;;;7.90;99.90;;;;;;5000892;28;20093;-86
2021/11/23 09:03:49;;;;;;;20.70;3.70;;;8.00;99.90;;;;;;4953412;28;20561;-86
2021/11/23 09:06:15;;;;;;;13.40;3.58;;;8.00;99.90;;;;;;4938344;28;20046;-87
2021/11/23 09:08:55;;;;;;;13.75;3.90;;;8.00;99.90;;;;;;4970729;28;20045;-87
2021/11/23 09:11:23;;;;;;;20.00;3.30;;;8.10;99.90;;;;;;4971248;28;20046;-87
2021/11/23 09:14:04;;;;;;;19.52;3.33;;;8.10;99.90;;;;;;4971549;28;20042;-87
2021/11/23 09:16:37;;;;;;;13.10;3.20;;;8.10;99.90;;;;;;4951830;28;20077;-88
2021/11/23 09:19:07;;;;;;;19.60;2.85;;;8.20;99.90;;;;;;4965978;28;20038;-87
2021/11/23 09:21:33;;;;;;;13.50;3.13;;;8.20;99.90;;;;;;4965652;28;20116;-86
2021/11/23 09:24:05;;;;;;;12.75;3.10;;;8.20;99.90;;;;;;4969602;28;20449;-88
2021/11/23 09:26:48;;;;;;;17.33;3.10;;;8.30;99.90;;;;;;4952148;28;20056;-87
2021/11/23 09:29:29;;;;;;;18.58;3.35;;;8.40;99.90;;;;;;4959023;28;20046;-87
2021/11/23 09:32:01;;;;;;;22.42;2.75;;;8.40;99.90;;;;;;4952689;28;20038;-87
2021/11/23 09:34:27;;;;;;;13.68;3.03;;;8.40;99.90;;;;;;4970827;28;20033;-88
2021/11/23 09:37:05;;;;;;;12.82;2.67;;;8.40;99.90;;;;;;4960644;28;20057;-87
2021/11/23 09:39:42;;;;;;;9.80;2.85;;;8.50;99.90;;;;;;4968623;28;20480;-88
2021/11/23 09:42:08;;;;;;;12.65;2.63;;;8.50;99.90;;;;;;4969244;28;20073;-86
2021/11/23 09:44:37;;;;;;;13.45;3.00;;;8.50;99.90;;;;;;4945701;28;20080;-86
2021/11/23 09:47:21;;;;;;;11.98;2.40;;;8.50;99.90;;;;;;4974764;28;20041;-87
2021/11/23 09:50:04;;;;;;;13.98;2.50;;;8.60;99.90;;;;;;4955538;28;20034;-87
2021/11/23 09:52:37;;;;;;;17.50;2.50;;;8.70;99.90;;;;;;4958273;28;20495;-87
2021/11/23 09:55:27;;;;;;;16.13;2.35;;;8.80;99.90;;;;;;4984801;28;20057;-87
2021/11/23 09:58:01;;;;;;;17.27;2.88;;;8.80;99.90;;;;;;4961622;28;20728;-87
2021/11/23 10:00:51;;;;;;;12.85;1.98;;;8.80;99.90;;;;;;4969588;28;20128;-87
2021/11/23 10:03:30;;;;;;;14.57;2.08;;;8.80;99.90;;;;;;4953221;28;20033;-87
2021/11/23 10:06:20;;;;;;;9.95;1.90;;;8.90;99.90;;;;;;4966341;28;20041;-87
2021/11/23 10:08:56;;;;;;;10.85;2.08;;;9.00;99.90;;;;;;4969434;28;20039;-86
2021/11/23 10:12:13;;;;;;;11.70;2.08;;;9.00;99.90;;;;;;4971541;28;20124;-89
2021/11/23 10:15:30;;;;;;;14.45;2.05;;;9.10;99.90;;;;;;4997178;28;20046;-86
2021/11/23 10:18:17;;;;;;;14.93;2.20;;;9.10;99.90;;;;;;4968663;28;20042;-88
2021/11/23 10:20:51;;;;;;;9.60;2.00;;;9.20;99.90;;;;;;4972737;28;20388;-87
2021/11/23 10:23:41;;;;;;;14.77;2.42;;;9.30;99.90;;;;;;4969373;28;20141;-88
2021/11/23 10:30:20;;;;;;;8.20;1.63;;;9.50;99.90;;;;;;5003284;28;20133;-87
2021/11/23 10:32:59;;;;;;;9.85;1.50;;;9.60;99.90;;;;;;4983019;28;20057;-87
2021/11/23 10:35:28;;;;;;;9.93;1.85;;;9.60;99.90;;;;;;4965059;28;20128;-86
2021/11/23 10:37:57;;;;;;;12.48;1.80;;;9.70;99.90;;;;;;4979763;28;20045;-88
2021/11/23 10:40:29;;;;;;;11.82;1.70;;;9.70;99.90;;;;;;4970353;28;20045;-88
2021/11/23 10:43:04;;;;;;;9.68;1.52;;;9.80;99.90;;;;;;4966907;28;20643;-87
2021/11/23 10:45:54;;;;;;;13.88;2.03;;;9.90;99.90;;;;;;4972535;28;20362;-88
2021/11/23 10:48:23;;;;;;;11.43;1.88;;;10.00;99.90;;;;;;4977129;28;20038;-87
2021/11/23 10:51:15;;;;;;;10.52;1.67;;;10.00;99.90;;;;;;4970811;28;20404;-88
2021/11/23 10:53:46;;;;;;;9.52;1.90;;;10.00;99.90;;;;;;4960667;28;20064;-90
2021/11/23 10:56:15;;;;;;;12.85;1.70;;;10.00;99.90;;;;;;4974950;28;20377;-88
2021/11/23 10:59:10;;;;;;;10.43;1.50;;;10.10;99.90;;;;;;4978236;28;20476;-89
2021/11/23 11:02:10;;;;;;;13.43;1.77;;;10.20;99.90;;;;;;4984668;28;20123;-88
2021/11/23 11:04:44;;;;;;;13.07;1.50;;;10.30;99.90;;;;;;4979971;28;20323;-89
2021/11/23 11:07:18;;;;;;;16.35;1.88;;;10.40;99.90;;;;;;4971173;28;20507;-89
2021/11/23 11:10:18;;;;;;;12.38;1.90;;;10.40;99.90;;;;;;4969414;28;20084;-88
2021/11/23 11:13:09;;;;;;;8.18;1.50;;;10.40;99.90;;;;;;4984079;28;20042;-88
2021/11/23 11:16:11;;;;;;;;;;;;;;;;;;;;;
2021/11/23 11:19:17;;;;;;;4.78;1.05;;;10.40;99.90;;;;;;4953567;28;20046;-88
2021/11/23 12:05:38;;;;;;;;;;;;;;;;;;;;;
2021/11/23 12:08:44;;;;;;;;;;;;;;;;;;;;;
2021/11/23 12:11:29;;;;;;;6.25;1.10;;;11.30;99.90;;;;;;4971162;28;20222;-91
2021/11/23 12:14:10;;;;;;;12.73;1.70;;;11.20;99.90;;;;;;5013494;28;20081;-91
2021/11/23 12:16:37;;;;;;;7.65;1.00;;;11.10;99.90;;;;;;5011880;28;20041;-90
2021/11/23 12:19:26;;;;;;;9.82;1.08;;;11.00;99.90;;;;;;5018114;28;20070;-91
2021/11/23 12:22:00;;;;;;;9.52;1.40;;;10.90;99.90;;;;;;5015670;28;20420;-90
2021/11/23 12:24:38;;;;;;;5.38;0.80;;;10.80;99.90;;;;;;5011139;28;20037;-90
2021/11/23 12:27:16;;;;;;;10.63;1.05;;;10.70;99.90;;;;;;5024250;28;20126;-90
2021/11/23 12:29:47;;;;;;;6.70;1.23;;;10.60;99.90;;;;;;5011791;28;20092;-89
2021/11/23 12:32:13;;;;;;;7.63;1.05;;;10.50;99.90;;;;;;5019661;28;20401;-90
2021/11/23 12:34:50;;;;;;;5.68;0.80;;;10.40;99.90;;;;;;5014062;28;20033;-89
2021/11/23 12:37:40;;;;;;;6.93;1.05;;;10.30;99.90;;;;;;5011537;28;20387;-91
2021/11/23 12:40:15;;;;;;;6.10;1.13;;;10.20;99.90;;;;;;5014566;28;20124;-90
2021/11/23 12:43:04;;;;;;;5.97;1.00;;;10.10;99.90;;;;;;5018351;28;20047;-90
2021/11/23 12:45:33;;;;;;;11.45;1.30;;;10.00;99.90;;;;;;4994415;28;20033;-90
2021/11/23 12:48:25;;;;;;;5.28;0.73;;;10.00;99.90;;;;;;5035916;28;20036;-90
2021/11/23 12:51:46;;;;;;;9.48;1.35;;;10.00;99.90;;;;;;5001738;28;20057;-90
2021/11/23 12:54:35;;;;;;;5.78;0.82;;;10.10;99.90;;;;;;5011025;28;20036;-91
2021/11/23 12:57:50;;;;;;;8.57;1.13;;;10.10;99.90;;;;;;5017610;28;20110;-91
2021/11/23 13:00:26;;;;;;;9.30;1.03;;;10.10;99.90;;;;;;5015019;28;20048;-90
2021/11/23 13:02:56;;;;;;;11.48;1.30;;;10.20;99.90;;;;;;5012399;28;20590;-91
2021/11/23 13:05:35;;;;;;;12.75;1.67;;;10.20;99.90;;;;;;5035792;28;20037;-92
2021/11/23 13:13:54;;;;;;;10.50;1.35;;;10.40;99.90;;;;;;5019738;28;20068;-86
2021/11/23 13:17:08;;;;;;;8.80;1.02;;;10.50;99.90;;;;;;5005983;28;20576;-86
2021/11/23 13:20:16;;;;;;;7.80;1.05;;;10.60;99.90;;;;;;4986947;28;20042;-87
2021/11/23 13:23:37;;;;;;;7.57;1.33;;;10.70;99.90;;;;;;5002564;28;20076;-87
2021/11/23 13:26:06;;;;;;;6.57;1.00;;;10.70;99.90;;;;;;4928859;28;20050;-87
2021/11/23 13:28:36;;;;;;;7.28;1.27;;;10.70;99.90;;;;;;4988642;28;20037;-86
2021/11/23 13:37:57;;;;;;;8.68;1.20;;;11.20;99.90;;;;;;5007843;28;20037;-88
2021/11/23 13:55:51;;;;;;;4.13;0.80;;;10.70;99.90;;;;;;5048346;28;20059;-84
2021/11/23 13:59:16;;;;;;;4.20;0.65;;;10.50;99.90;;;;;;4994257;28;20723;-84
2021/11/23 14:02:31;;;;;;;8.73;0.77;;;10.40;99.90;;;;;;5017224;28;20198;-87
2021/11/23 14:04:59;;;;;;;4.78;0.63;;;10.30;99.90;;;;;;5032455;28;20068;-87
2021/11/23 14:07:52;;;;;;;10.00;1.00;;;10.30;99.90;;;;;;5000838;28;20372;-85
2021/11/23 14:12:59;;;;;;;5.38;0.80;;;10.10;99.90;;;;;;774010;22;20200;-89
2021/11/23 14:15:25;;;;;;;5.40;1.10;;;10.10;99.90;;;;;;4990609;28;20046;-90
2021/11/23 14:18:23;;;;;;;11.20;1.50;;;10.00;99.90;;;;;;4989938;28;20946;-91
2021/11/23 14:21:14;;;;;;;7.47;1.13;;;10.00;99.90;;;;;;4976702;28;20042;-90
2021/11/23 14:23:47;;;;;;;7.28;0.80;;;10.00;99.90;;;;;;4977034;28;20432;-90
2021/11/23 14:26:34;;;;;;;7.07;0.95;;;10.00;99.90;;;;;;4984941;28;20046;-90
2021/11/23 14:29:07;;;;;;;8.25;1.00;;;9.90;99.90;;;;;;5000456;28;20365;-89
2021/11/23 14:31:38;;;;;;;11.00;1.30;;;9.90;99.90;;;;;;4977132;28;20552;-89
2021/11/23 14:34:18;;;;;;;6.80;1.02;;;9.90;99.90;;;;;;4977225;28;20038;-90
2021/11/23 14:36:47;;;;;;;9.18;0.98;;;9.80;99.90;;;;;;4979877;28;20042;-90
2021/11/23 14:39:19;;;;;;;11.68;1.38;;;9.70;99.90;;;;;;4993425;28;20037;-90
2021/11/23 14:41:45;;;;;;;7.57;1.10;;;9.70;99.90;;;;;;4979363;28;20125;-91
2021/11/23 14:44:23;;;;;;;9.75;1.48;;;9.60;99.90;;;;;;4980398;28;20046;-90
2021/11/23 14:47:25;;;;;;;12.45;1.10;;;9.60;99.90;;;;;;4984222;28;20472;-89
2021/11/23 14:49:54;;;;;;;7.97;1.20;;;9.50;99.90;;;;;;4970361;28;20037;-91
2021/11/23 14:52:26;;;;;;;6.93;1.20;;;9.40;99.90;;;;;;4979969;28;20516;-90
2021/11/23 14:55:33;;;;;;;9.05;1.30;;;9.40;99.90;;;;;;4990817;28;20468;-90
2021/11/23 15:00:30;;;;;;;5.07;1.15;;;9.30;99.90;;;;;;5046432;28;20041;-86